KCRQKBUR

Guest
Details From KCRQ - Mc Clellan Palomar
To KBUR - BOB HOPE
Flight Number -
Tags generated
Created
Modified
Stats Distance 84 nm / 156 km
Max Altitude 3,900 ft / 1,189 m
Waypoints 3
Social Downloads 7
Likes 0
Share VATSIM

Download

Looking for another format? Having issues loading an existing format? Contact us
Advertisement - Login to hide

Notes

Basic altitude profile: - Ascent Rate: 800ft/min - Ascent Speed: 80kts - Cruise Altitude: 8000ft - Cruise Speed: 110kts - Descent Rate: 1500ft/min - Descent Speed: 250kts Options: - Use NATs: yes - Use PACOTS: yes - Use low airways: yes - Use high airways: yes

Route

KCRQ DOWNE KBUR

ID Type Via Altitude Latitude Longitude Leg Dist Tot Dist Heading (true) Name
O KCRQ APT - 0 ft / 0 m 33.12827˚ -117.27997˚ - 0 nm - Mc Clellan Palomar
DOWNE FIX - 3,900 ft / 1,189 m 33.96430˚ -118.12373˚ 65 nm 65 nm 320° / 320° -
O KBUR APT - 0 ft / 0 m 34.20048˚ -118.35877˚ 18 nm 83 nm 321° / 320° BOB HOPE

Altitude Profile

Advertisement - Login to hide

KCRQ

Details ICAO KCRQ (CLD)
Name Mc Clellan Palomar
Region United States
Timezone America/Los_Angeles (UTC-8.0)
Stats Elevation 331 ft / 101 m (AMSL)
Location 33.128268° -117.279967°
Runways 1
Magnetic Variation 11.618° E

METAR

KCRQ 161653Z AUTO 11004KT 10SM FEW014 SCT027 BKN033 14/05 A2976 RMK AO2 SLP076 T01390050

Decode

TAF

KCRQ 161139Z 1612/1712 VRB04KT P6SM BKN250 FM161400 14006KT P6SM BKN010 FM161900 19006KT P6SM VCSH BKN020 FM162300 17005KT P6SM BKN018 FM170300 VRB04KT P6SM SKC

Decode

Departure Runways

ID Width Length Bearing (true) Bearing (mag) Surface Threshold Offset Overrun Length
06 151 ft / 46 m 4,954 ft / 1,510 m 79.08° 67.46° Asphalt 299 ft / 91 m 200 ft / 61 m
24 151 ft / 46 m 4,954 ft / 1,510 m 259.09° 247.47° Asphalt 0 ft / 0 m 200 ft / 61 m

KBUR

Details ICAO KBUR (BUR)
Name BOB HOPE
Region United States
Timezone America/Los_Angeles (UTC-8.0)
Stats Elevation 778 ft / 237 m (AMSL)
Location 34.200475° -118.358767°
Runways 2
Magnetic Variation 12.046° E

METAR

KBUR 161653Z 00000KT 8SM CLR 13/04 A2973 RMK AO2 SLP058 T01280039

Decode

TAF

TAF KBUR 161145Z 1612/1712 VRB03KT P6SM BKN250 FM162000 17010KT P6SM SCT250 FM170200 35006KT P6SM SCT250 FM170900 34012KT P6SM SKC WS010/04035KT

Decode

Destination Runways

ID Width Length Bearing (true) Bearing (mag) Surface Threshold Offset Overrun Length
08 151 ft / 46 m 5,835 ft / 1,779 m 90.92° 78.87° Asphalt 0 ft / 0 m 259 ft / 79 m
15 151 ft / 46 m 6,962 ft / 2,122 m 167.12° 155.07° Asphalt 909 ft / 277 m 0 ft / 0 m
26 151 ft / 46 m 5,835 ft / 1,779 m 270.93° 258.88° Asphalt 0 ft / 0 m 253 ft / 77 m
33 151 ft / 46 m 6,962 ft / 2,122 m 347.12° 335.07° Asphalt 351 ft / 107 m 0 ft / 0 m

Approach Navaids

Runway Type Ident Frequency Range Bearing (true) Bearing (mag) Slope Elevation
08 Localiser IBUR 109.50 MHz 18 nm / 33 km 90.84° 78.79° - 726 ft / 221 m (AMSL)
08 Glidescope IBUR 109.50 MHz 10 nm / 19 km 90.93° 78.88° 3.00° 720 ft / 219 m (AMSL)